sensor_id;sensor_type;location;lat;lon;timestamp;P1;durP1;ratioP1;P2;durP2;ratioP2
17606;SDS011;8922;52.240;20.980;2022-11-10T00:00:32;31.80;;;20.23;;
17606;SDS011;8922;52.240;20.980;2022-11-10T00:03:00;30.90;;;21.20;;
17606;SDS011;8922;52.240;20.980;2022-11-10T00:05:28;32.77;;;20.63;;
17606;SDS011;8922;52.240;20.980;2022-11-10T00:07:55;35.77;;;21.87;;
17606;SDS011;8922;52.240;20.980;2022-11-10T00:10:22;33.23;;;19.63;;
17606;SDS011;8922;52.240;20.980;2022-11-10T00:12:50;34.30;;;21.10;;
17606;SDS011;8922;52.240;20.980;2022-11-10T00:15:17;33.80;;;21.23;;
17606;SDS011;8922;52.240;20.980;2022-11-10T00:18:02;31.17;;;20.23;;
17606;SDS011;8922;52.240;20.980;2022-11-10T00:20:30;34.97;;;21.27;;
17606;SDS011;8922;52.240;20.980;2022-11-10T00:22:57;30.87;;;19.97;;
17606;SDS011;8922;52.240;20.980;2022-11-10T00:25:25;30.77;;;19.93;;
17606;SDS011;8922;52.240;20.980;2022-11-10T00:27:54;30.03;;;19.87;;
17606;SDS011;8922;52.240;20.980;2022-11-10T00:30:23;30.40;;;20.73;;
17606;SDS011;8922;52.240;20.980;2022-11-10T00:32:50;30.60;;;20.63;;
17606;SDS011;8922;52.240;20.980;2022-11-10T00:35:17;31.93;;;20.57;;
17606;SDS011;8922;52.240;20.980;2022-11-10T00:37:44;35.90;;;22.50;;
17606;SDS011;8922;52.240;20.980;2022-11-10T00:40:10;34.47;;;21.47;;
17606;SDS011;8922;52.240;20.980;2022-11-10T00:42:37;32.87;;;21.67;;
17606;SDS011;8922;52.240;20.980;2022-11-10T00:45:06;32.13;;;20.73;;
17606;SDS011;8922;52.240;20.980;2022-11-10T00:47:34;32.47;;;20.77;;
17606;SDS011;8922;52.240;20.980;2022-11-10T00:50:01;31.53;;;21.47;;
17606;SDS011;8922;52.240;20.980;2022-11-10T00:52:28;33.53;;;21.97;;
17606;SDS011;8922;52.240;20.980;2022-11-10T00:54:54;34.70;;;20.47;;
17606;SDS011;8922;52.240;20.980;2022-11-10T00:57:21;34.00;;;22.10;;
17606;SDS011;8922;52.240;20.980;2022-11-10T00:59:48;33.43;;;20.77;;
17606;SDS011;8922;52.240;20.980;2022-11-10T01:02:16;34.37;;;20.43;;
17606;SDS011;8922;52.240;20.980;2022-11-10T01:04:43;31.40;;;20.33;;
17606;SDS011;8922;52.240;20.980;2022-11-10T01:07:09;33.30;;;21.07;;
17606;SDS011;8922;52.240;20.980;2022-11-10T01:09:36;35.20;;;20.83;;
17606;SDS011;8922;52.240;20.980;2022-11-10T01:12:03;34.87;;;20.40;;
17606;SDS011;8922;52.240;20.980;2022-11-10T01:14:30;32.67;;;20.87;;
17606;SDS011;8922;52.240;20.980;2022-11-10T01:16:57;31.73;;;21.20;;
17606;SDS011;8922;52.240;20.980;2022-11-10T01:19:25;32.23;;;21.23;;
17606;SDS011;8922;52.240;20.980;2022-11-10T01:21:52;33.50;;;21.13;;
17606;SDS011;8922;52.240;20.980;2022-11-10T01:24:19;32.30;;;22.13;;
17606;SDS011;8922;52.240;20.980;2022-11-10T01:26:46;35.47;;;21.53;;
17606;SDS011;8922;52.240;20.980;2022-11-10T01:29:13;30.13;;;20.77;;
17606;SDS011;8922;52.240;20.980;2022-11-10T01:31:40;31.70;;;20.20;;
17606;SDS011;8922;52.240;20.980;2022-11-10T01:34:07;33.10;;;20.13;;
17606;SDS011;8922;52.240;20.980;2022-11-10T01:36:35;35.87;;;21.77;;
17606;SDS011;8922;52.240;20.980;2022-11-10T01:39:02;34.00;;;21.97;;
17606;SDS011;8922;52.240;20.980;2022-11-10T01:41:28;31.37;;;20.87;;
17606;SDS011;8922;52.240;20.980;2022-11-10T01:44:10;36.23;;;21.87;;
17606;SDS011;8922;52.240;20.980;2022-11-10T01:46:38;34.43;;;21.47;;
17606;SDS011;8922;52.240;20.980;2022-11-10T01:49:05;31.77;;;20.77;;
17606;SDS011;8922;52.240;20.980;2022-11-10T01:51:33;35.80;;;22.07;;
17606;SDS011;8922;52.240;20.980;2022-11-10T01:54:05;32.13;;;20.70;;
17606;SDS011;8922;52.240;20.980;2022-11-10T01:56:36;32.20;;;21.10;;
17606;SDS011;8922;52.240;20.980;2022-11-10T01:59:08;34.57;;;21.47;;
17606;SDS011;8922;52.240;20.980;2022-11-10T02:01:39;34.47;;;21.40;;
17606;SDS011;8922;52.240;20.980;2022-11-10T02:04:06;35.13;;;21.93;;
17606;SDS011;8922;52.240;20.980;2022-11-10T02:06:39;31.00;;;20.10;;
17606;SDS011;8922;52.240;20.980;2022-11-10T02:09:08;33.87;;;21.30;;
17606;SDS011;8922;52.240;20.980;2022-11-10T02:11:36;34.67;;;21.20;;
17606;SDS011;8922;52.240;20.980;2022-11-10T02:14:04;34.90;;;21.47;;
17606;SDS011;8922;52.240;20.980;2022-11-10T02:16:31;34.23;;;21.93;;
17606;SDS011;8922;52.240;20.980;2022-11-10T02:19:10;33.27;;;21.20;;
17606;SDS011;8922;52.240;20.980;2022-11-10T02:21:40;32.10;;;20.07;;
17606;SDS011;8922;52.240;20.980;2022-11-10T02:24:07;34.23;;;21.13;;
17606;SDS011;8922;52.240;20.980;2022-11-10T02:26:34;32.37;;;21.90;;
17606;SDS011;8922;52.240;20.980;2022-11-10T02:29:04;31.50;;;20.43;;
17606;SDS011;8922;52.240;20.980;2022-11-10T02:31:30;32.77;;;20.60;;
17606;SDS011;8922;52.240;20.980;2022-11-10T02:33:57;33.73;;;20.40;;
17606;SDS011;8922;52.240;20.980;2022-11-10T02:36:24;32.67;;;21.17;;
17606;SDS011;8922;52.240;20.980;2022-11-10T02:38:52;31.93;;;21.87;;
17606;SDS011;8922;52.240;20.980;2022-11-10T02:41:19;32.80;;;20.07;;
17606;SDS011;8922;52.240;20.980;2022-11-10T02:43:46;35.73;;;21.23;;
17606;SDS011;8922;52.240;20.980;2022-11-10T02:46:13;36.37;;;21.97;;
17606;SDS011;8922;52.240;20.980;2022-11-10T02:48:40;32.40;;;21.47;;
17606;SDS011;8922;52.240;20.980;2022-11-10T02:51:07;34.27;;;21.87;;
17606;SDS011;8922;52.240;20.980;2022-11-10T02:53:34;32.53;;;21.80;;
17606;SDS011;8922;52.240;20.980;2022-11-10T02:56:02;32.97;;;20.87;;
17606;SDS011;8922;52.240;20.980;2022-11-10T02:58:29;32.23;;;20.63;;
17606;SDS011;8922;52.240;20.980;2022-11-10T03:00:55;35.77;;;22.17;;
17606;SDS011;8922;52.240;20.980;2022-11-10T03:03:22;33.87;;;21.67;;
17606;SDS011;8922;52.240;20.980;2022-11-10T03:05:49;33.03;;;20.90;;
17606;SDS011;8922;52.240;20.980;2022-11-10T03:08:16;34.43;;;21.83;;
17606;SDS011;8922;52.240;20.980;2022-11-10T03:10:43;33.03;;;20.27;;
17606;SDS011;8922;52.240;20.980;2022-11-10T03:13:11;33.77;;;21.00;;
17606;SDS011;8922;52.240;20.980;2022-11-10T03:15:37;35.03;;;22.00;;
17606;SDS011;8922;52.240;20.980;2022-11-10T03:18:04;29.47;;;20.30;;
17606;SDS011;8922;52.240;20.980;2022-11-10T03:20:31;35.57;;;21.20;;
17606;SDS011;8922;52.240;20.980;2022-11-10T03:23:01;33.70;;;21.30;;
17606;SDS011;8922;52.240;20.980;2022-11-10T03:25:28;34.07;;;22.13;;
17606;SDS011;8922;52.240;20.980;2022-11-10T03:27:56;34.33;;;21.20;;
17606;SDS011;8922;52.240;20.980;2022-11-10T03:30:24;30.87;;;21.10;;
17606;SDS011;8922;52.240;20.980;2022-11-10T03:32:51;32.27;;;21.20;;
17606;SDS011;8922;52.240;20.980;2022-11-10T03:35:18;35.00;;;21.00;;
17606;SDS011;8922;52.240;20.980;2022-11-10T03:37:45;33.40;;;21.73;;
17606;SDS011;8922;52.240;20.980;2022-11-10T03:40:12;39.27;;;22.30;;
17606;SDS011;8922;52.240;20.980;2022-11-10T03:42:41;35.97;;;21.93;;
17606;SDS011;8922;52.240;20.980;2022-11-10T03:45:09;34.37;;;21.37;;
17606;SDS011;8922;52.240;20.980;2022-11-10T03:47:39;32.70;;;20.90;;
17606;SDS011;8922;52.240;20.980;2022-11-10T03:50:06;32.97;;;21.33;;
17606;SDS011;8922;52.240;20.980;2022-11-10T03:52:33;35.53;;;22.50;;
17606;SDS011;8922;52.240;20.980;2022-11-10T03:55:00;35.47;;;22.67;;
17606;SDS011;8922;52.240;20.980;2022-11-10T03:57:27;35.93;;;21.97;;
17606;SDS011;8922;52.240;20.980;2022-11-10T03:59:54;32.50;;;21.10;;
17606;SDS011;8922;52.240;20.980;2022-11-10T04:02:20;34.90;;;21.47;;
17606;SDS011;8922;52.240;20.980;2022-11-10T04:04:48;36.83;;;23.20;;
17606;SDS011;8922;52.240;20.980;2022-11-10T04:07:33;34.17;;;21.03;;
17606;SDS011;8922;52.240;20.980;2022-11-10T04:10:17;35.13;;;22.60;;
17606;SDS011;8922;52.240;20.980;2022-11-10T04:12:44;34.67;;;21.67;;
17606;SDS011;8922;52.240;20.980;2022-11-10T04:15:28;35.20;;;22.37;;
17606;SDS011;8922;52.240;20.980;2022-11-10T04:18:07;34.63;;;21.27;;
17606;SDS011;8922;52.240;20.980;2022-11-10T04:20:50;33.57;;;21.20;;
17606;SDS011;8922;52.240;20.980;2022-11-10T04:23:19;35.50;;;21.47;;
17606;SDS011;8922;52.240;20.980;2022-11-10T04:25:52;33.83;;;20.67;;
17606;SDS011;8922;52.240;20.980;2022-11-10T04:28:41;33.13;;;21.03;;
17606;SDS011;8922;52.240;20.980;2022-11-10T04:31:09;35.63;;;21.23;;
17606;SDS011;8922;52.240;20.980;2022-11-10T04:33:37;33.73;;;21.57;;
17606;SDS011;8922;52.240;20.980;2022-11-10T04:36:06;33.23;;;20.73;;
17606;SDS011;8922;52.240;20.980;2022-11-10T04:38:33;36.23;;;22.77;;
17606;SDS011;8922;52.240;20.980;2022-11-10T04:41:00;36.10;;;22.17;;
17606;SDS011;8922;52.240;20.980;2022-11-10T04:43:27;33.67;;;22.20;;
17606;SDS011;8922;52.240;20.980;2022-11-10T04:45:55;36.43;;;20.93;;
17606;SDS011;8922;52.240;20.980;2022-11-10T04:48:22;38.50;;;21.40;;
17606;SDS011;8922;52.240;20.980;2022-11-10T04:50:49;34.17;;;21.97;;
17606;SDS011;8922;52.240;20.980;2022-11-10T04:53:18;37.47;;;21.93;;
17606;SDS011;8922;52.240;20.980;2022-11-10T04:55:45;38.97;;;23.00;;
17606;SDS011;8922;52.240;20.980;2022-11-10T04:58:12;35.40;;;21.93;;
17606;SDS011;8922;52.240;20.980;2022-11-10T05:00:40;33.03;;;21.43;;
17606;SDS011;8922;52.240;20.980;2022-11-10T05:03:08;34.57;;;22.43;;
17606;SDS011;8922;52.240;20.980;2022-11-10T05:05:36;35.90;;;21.87;;
17606;SDS011;8922;52.240;20.980;2022-11-10T05:08:03;36.67;;;23.37;;
17606;SDS011;8922;52.240;20.980;2022-11-10T05:10:31;34.93;;;22.27;;
17606;SDS011;8922;52.240;20.980;2022-11-10T05:12:58;34.83;;;22.33;;
17606;SDS011;8922;52.240;20.980;2022-11-10T05:15:27;38.07;;;22.47;;
17606;SDS011;8922;52.240;20.980;2022-11-10T05:17:54;34.03;;;21.90;;
17606;SDS011;8922;52.240;20.980;2022-11-10T05:20:21;36.43;;;22.90;;
17606;SDS011;8922;52.240;20.980;2022-11-10T05:22:50;34.60;;;21.83;;
17606;SDS011;8922;52.240;20.980;2022-11-10T05:25:37;35.73;;;22.27;;
17606;SDS011;8922;52.240;20.980;2022-11-10T05:28:05;37.20;;;21.70;;
17606;SDS011;8922;52.240;20.980;2022-11-10T05:30:33;37.33;;;22.80;;
17606;SDS011;8922;52.240;20.980;2022-11-10T05:33:00;36.63;;;21.93;;
17606;SDS011;8922;52.240;20.980;2022-11-10T05:35:27;37.53;;;21.80;;
17606;SDS011;8922;52.240;20.980;2022-11-10T05:37:54;36.03;;;23.20;;
17606;SDS011;8922;52.240;20.980;2022-11-10T05:40:21;38.30;;;22.90;;
17606;SDS011;8922;52.240;20.980;2022-11-10T05:42:51;35.73;;;22.40;;
17606;SDS011;8922;52.240;20.980;2022-11-10T05:45:18;37.83;;;21.37;;
17606;SDS011;8922;52.240;20.980;2022-11-10T05:47:47;38.67;;;22.53;;
17606;SDS011;8922;52.240;20.980;2022-11-10T05:50:14;37.13;;;22.83;;
17606;SDS011;8922;52.240;20.980;2022-11-10T05:52:42;37.20;;;24.17;;
17606;SDS011;8922;52.240;20.980;2022-11-10T05:55:11;37.50;;;22.33;;
17606;SDS011;8922;52.240;20.980;2022-11-10T05:57:40;37.00;;;22.90;;
17606;SDS011;8922;52.240;20.980;2022-11-10T06:00:09;36.17;;;22.97;;
17606;SDS011;8922;52.240;20.980;2022-11-10T06:02:37;40.20;;;23.53;;
17606;SDS011;8922;52.240;20.980;2022-11-10T06:05:06;37.43;;;22.67;;
17606;SDS011;8922;52.240;20.980;2022-11-10T06:07:33;37.63;;;23.23;;
17606;SDS011;8922;52.240;20.980;2022-11-10T06:10:00;38.03;;;23.53;;
17606;SDS011;8922;52.240;20.980;2022-11-10T06:12:27;38.73;;;23.13;;
17606;SDS011;8922;52.240;20.980;2022-11-10T06:14:54;35.87;;;23.10;;
17606;SDS011;8922;52.240;20.980;2022-11-10T06:17:23;38.20;;;22.37;;
17606;SDS011;8922;52.240;20.980;2022-11-10T06:19:50;37.80;;;22.27;;
17606;SDS011;8922;52.240;20.980;2022-11-10T06:22:17;38.03;;;23.40;;
17606;SDS011;8922;52.240;20.980;2022-11-10T06:24:44;39.23;;;23.27;;
17606;SDS011;8922;52.240;20.980;2022-11-10T06:27:10;37.70;;;23.27;;
17606;SDS011;8922;52.240;20.980;2022-11-10T06:29:37;38.20;;;21.93;;
17606;SDS011;8922;52.240;20.980;2022-11-10T06:32:04;40.85;;;23.30;;
17606;SDS011;8922;52.240;20.980;2022-11-10T06:34:32;38.83;;;24.43;;
17606;SDS011;8922;52.240;20.980;2022-11-10T06:36:59;35.40;;;22.33;;
17606;SDS011;8922;52.240;20.980;2022-11-10T06:39:26;37.47;;;22.07;;
17606;SDS011;8922;52.240;20.980;2022-11-10T06:41:53;37.50;;;23.40;;
17606;SDS011;8922;52.240;20.980;2022-11-10T06:44:19;35.87;;;22.67;;
17606;SDS011;8922;52.240;20.980;2022-11-10T06:46:48;39.03;;;21.97;;
17606;SDS011;8922;52.240;20.980;2022-11-10T06:49:14;38.37;;;22.63;;
17606;SDS011;8922;52.240;20.980;2022-11-10T06:51:42;37.03;;;22.60;;
17606;SDS011;8922;52.240;20.980;2022-11-10T06:54:10;41.43;;;23.63;;
17606;SDS011;8922;52.240;20.980;2022-11-10T06:56:36;35.90;;;21.30;;
17606;SDS011;8922;52.240;20.980;2022-11-10T06:59:03;34.97;;;21.53;;
17606;SDS011;8922;52.240;20.980;2022-11-10T07:01:30;38.87;;;21.57;;
17606;SDS011;8922;52.240;20.980;2022-11-10T07:03:57;36.53;;;20.63;;
17606;SDS011;8922;52.240;20.980;2022-11-10T07:06:24;33.73;;;20.43;;
17606;SDS011;8922;52.240;20.980;2022-11-10T07:08:52;36.83;;;22.07;;
17606;SDS011;8922;52.240;20.980;2022-11-10T07:11:19;37.60;;;21.93;;
17606;SDS011;8922;52.240;20.980;2022-11-10T07:13:45;36.30;;;22.20;;
17606;SDS011;8922;52.240;20.980;2022-11-10T07:16:12;45.03;;;27.77;;
17606;SDS011;8922;52.240;20.980;2022-11-10T07:18:39;35.37;;;22.30;;
17606;SDS011;8922;52.240;20.980;2022-11-10T07:21:06;41.72;;;27.60;;
17606;SDS011;8922;52.240;20.980;2022-11-10T07:23:32;38.67;;;24.98;;
17606;SDS011;8922;52.240;20.980;2022-11-10T07:26:01;34.03;;;21.90;;
17606;SDS011;8922;52.240;20.980;2022-11-10T07:28:28;36.47;;;21.53;;
17606;SDS011;8922;52.240;20.980;2022-11-10T07:30:54;34.00;;;20.47;;
17606;SDS011;8922;52.240;20.980;2022-11-10T07:33:21;34.00;;;22.03;;
17606;SDS011;8922;52.240;20.980;2022-11-10T07:35:49;33.20;;;21.00;;
17606;SDS011;8922;52.240;20.980;2022-11-10T07:38:19;35.60;;;19.63;;
17606;SDS011;8922;52.240;20.980;2022-11-10T07:40:48;33.37;;;20.83;;
17606;SDS011;8922;52.240;20.980;2022-11-10T07:43:17;35.30;;;19.97;;
17606;SDS011;8922;52.240;20.980;2022-11-10T07:45:44;32.07;;;19.83;;
17606;SDS011;8922;52.240;20.980;2022-11-10T07:48:11;31.90;;;19.63;;
17606;SDS011;8922;52.240;20.980;2022-11-10T07:50:38;33.17;;;20.63;;
17606;SDS011;8922;52.240;20.980;2022-11-10T07:53:06;32.03;;;20.03;;
17606;SDS011;8922;52.240;20.980;2022-11-10T07:55:35;36.57;;;20.73;;
17606;SDS011;8922;52.240;20.980;2022-11-10T07:58:03;36.20;;;21.07;;
17606;SDS011;8922;52.240;20.980;2022-11-10T08:00:31;36.43;;;20.97;;
17606;SDS011;8922;52.240;20.980;2022-11-10T08:03:01;34.50;;;20.97;;
17606;SDS011;8922;52.240;20.980;2022-11-10T08:05:31;31.20;;;19.33;;
17606;SDS011;8922;52.240;20.980;2022-11-10T08:07:58;34.83;;;20.00;;
17606;SDS011;8922;52.240;20.980;2022-11-10T08:10:25;36.33;;;19.87;;
17606;SDS011;8922;52.240;20.980;2022-11-10T08:12:53;33.40;;;19.83;;
17606;SDS011;8922;52.240;20.980;2022-11-10T08:15:20;31.57;;;20.10;;
17606;SDS011;8922;52.240;20.980;2022-11-10T08:17:49;34.03;;;19.73;;
17606;SDS011;8922;52.240;20.980;2022-11-10T08:20:16;32.10;;;19.63;;
17606;SDS011;8922;52.240;20.980;2022-11-10T08:22:43;33.00;;;19.53;;
17606;SDS011;8922;52.240;20.980;2022-11-10T08:25:10;33.83;;;19.40;;
17606;SDS011;8922;52.240;20.980;2022-11-10T08:27:37;34.43;;;19.73;;
17606;SDS011;8922;52.240;20.980;2022-11-10T08:30:04;33.67;;;19.37;;
17606;SDS011;8922;52.240;20.980;2022-11-10T08:32:32;30.13;;;19.73;;
17606;SDS011;8922;52.240;20.980;2022-11-10T08:35:00;35.40;;;18.63;;
17606;SDS011;8922;52.240;20.980;2022-11-10T08:37:27;33.13;;;18.87;;
17606;SDS011;8922;52.240;20.980;2022-11-10T08:39:54;29.67;;;18.73;;
17606;SDS011;8922;52.240;20.980;2022-11-10T08:42:21;29.93;;;18.67;;
17606;SDS011;8922;52.240;20.980;2022-11-10T08:44:48;30.10;;;19.30;;
17606;SDS011;8922;52.240;20.980;2022-11-10T08:47:14;28.97;;;16.83;;
17606;SDS011;8922;52.240;20.980;2022-11-10T08:49:41;26.53;;;17.50;;
17606;SDS011;8922;52.240;20.980;2022-11-10T08:52:09;27.27;;;16.73;;
17606;SDS011;8922;52.240;20.980;2022-11-10T08:54:38;30.77;;;17.47;;
17606;SDS011;8922;52.240;20.980;2022-11-10T08:57:04;29.80;;;18.23;;
17606;SDS011;8922;52.240;20.980;2022-11-10T08:59:31;26.97;;;17.13;;
17606;SDS011;8922;52.240;20.980;2022-11-10T09:01:58;25.37;;;15.93;;
17606;SDS011;8922;52.240;20.980;2022-11-10T09:04:25;30.27;;;17.77;;
17606;SDS011;8922;52.240;20.980;2022-11-10T09:06:51;34.33;;;17.63;;
17606;SDS011;8922;52.240;20.980;2022-11-10T09:09:23;30.07;;;16.40;;
17606;SDS011;8922;52.240;20.980;2022-11-10T09:11:49;25.97;;;16.83;;
17606;SDS011;8922;52.240;20.980;2022-11-10T09:14:16;30.00;;;17.07;;
17606;SDS011;8922;52.240;20.980;2022-11-10T09:16:43;29.03;;;17.47;;
17606;SDS011;8922;52.240;20.980;2022-11-10T09:19:10;28.00;;;17.43;;
17606;SDS011;8922;52.240;20.980;2022-11-10T09:21:37;28.50;;;18.57;;
17606;SDS011;8922;52.240;20.980;2022-11-10T09:24:04;32.17;;;17.87;;
17606;SDS011;8922;52.240;20.980;2022-11-10T09:26:33;29.60;;;17.93;;
17606;SDS011;8922;52.240;20.980;2022-11-10T09:28:59;28.63;;;17.93;;
17606;SDS011;8922;52.240;20.980;2022-11-10T09:31:26;24.40;;;16.70;;
17606;SDS011;8922;52.240;20.980;2022-11-10T09:33:53;28.17;;;16.93;;
17606;SDS011;8922;52.240;20.980;2022-11-10T09:36:20;25.53;;;16.50;;
17606;SDS011;8922;52.240;20.980;2022-11-10T09:38:46;29.40;;;17.47;;
17606;SDS011;8922;52.240;20.980;2022-11-10T09:41:13;24.93;;;16.37;;
17606;SDS011;8922;52.240;20.980;2022-11-10T09:43:43;27.70;;;17.80;;
17606;SDS011;8922;52.240;20.980;2022-11-10T09:46:15;25.60;;;16.63;;
17606;SDS011;8922;52.240;20.980;2022-11-10T09:48:46;27.87;;;16.90;;
17606;SDS011;8922;52.240;20.980;2022-11-10T09:51:18;26.63;;;17.07;;
17606;SDS011;8922;52.240;20.980;2022-11-10T09:53:49;28.47;;;18.03;;
17606;SDS011;8922;52.240;20.980;2022-11-10T09:56:18;31.00;;;18.07;;
17606;SDS011;8922;52.240;20.980;2022-11-10T09:58:49;25.73;;;15.80;;
17606;SDS011;8922;52.240;20.980;2022-11-10T10:01:18;23.87;;;16.50;;
17606;SDS011;8922;52.240;20.980;2022-11-10T10:03:58;29.63;;;17.47;;
17606;SDS011;8922;52.240;20.980;2022-11-10T10:06:37;23.80;;;16.23;;
17606;SDS011;8922;52.240;20.980;2022-11-10T10:09:10;26.10;;;16.13;;
17606;SDS011;8922;52.240;20.980;2022-11-10T10:11:48;25.87;;;15.83;;
17606;SDS011;8922;52.240;20.980;2022-11-10T10:14:35;28.83;;;17.10;;
17606;SDS011;8922;52.240;20.980;2022-11-10T10:17:17;27.70;;;16.30;;
17606;SDS011;8922;52.240;20.980;2022-11-10T10:19:51;25.50;;;15.57;;
17606;SDS011;8922;52.240;20.980;2022-11-10T10:22:30;25.33;;;16.33;;
17606;SDS011;8922;52.240;20.980;2022-11-10T10:25:18;22.07;;;14.63;;
17606;SDS011;8922;52.240;20.980;2022-11-10T10:27:49;25.20;;;16.00;;
17606;SDS011;8922;52.240;20.980;2022-11-10T10:30:24;27.40;;;17.20;;
17606;SDS011;8922;52.240;20.980;2022-11-10T10:32:53;21.97;;;14.77;;
17606;SDS011;8922;52.240;20.980;2022-11-10T10:35:23;24.43;;;14.83;;
17606;SDS011;8922;52.240;20.980;2022-11-10T10:37:51;21.90;;;14.80;;
17606;SDS011;8922;52.240;20.980;2022-11-10T10:40:21;25.13;;;14.97;;
17606;SDS011;8922;52.240;20.980;2022-11-10T10:42:49;23.30;;;14.27;;
17606;SDS011;8922;52.240;20.980;2022-11-10T10:45:17;20.87;;;14.83;;
17606;SDS011;8922;52.240;20.980;2022-11-10T10:47:48;20.90;;;13.97;;
17606;SDS011;8922;52.240;20.980;2022-11-10T10:50:27;20.77;;;14.23;;
17606;SDS011;8922;52.240;20.980;2022-11-10T10:55:46;23.07;;;15.43;;
17606;SDS011;8922;52.240;20.980;2022-11-10T10:58:19;22.20;;;14.87;;
17606;SDS011;8922;52.240;20.980;2022-11-10T11:00:49;19.90;;;14.03;;
17606;SDS011;8922;52.240;20.980;2022-11-10T11:03:25;20.70;;;14.80;;
17606;SDS011;8922;52.240;20.980;2022-11-10T11:06:11;24.40;;;14.23;;
17606;SDS011;8922;52.240;20.980;2022-11-10T11:08:52;21.67;;;13.63;;
17606;SDS011;8922;52.240;20.980;2022-11-10T11:11:24;22.03;;;14.47;;
17606;SDS011;8922;52.240;20.980;2022-11-10T11:13:52;20.80;;;13.90;;
17606;SDS011;8922;52.240;20.980;2022-11-10T11:16:19;19.23;;;13.63;;
17606;SDS011;8922;52.240;20.980;2022-11-10T11:18:47;18.63;;;13.23;;
17606;SDS011;8922;52.240;20.980;2022-11-10T11:21:19;19.30;;;13.53;;
17606;SDS011;8922;52.240;20.980;2022-11-10T11:23:58;19.43;;;12.43;;
17606;SDS011;8922;52.240;20.980;2022-11-10T11:26:47;17.63;;;12.67;;
17606;SDS011;8922;52.240;20.980;2022-11-10T11:32:12;18.90;;;12.33;;
17606;SDS011;8922;52.240;20.980;2022-11-10T11:34:52;16.93;;;11.83;;
17606;SDS011;8922;52.240;20.980;2022-11-10T11:37:28;17.17;;;11.93;;
17606;SDS011;8922;52.240;20.980;2022-11-10T11:40:05;18.77;;;11.73;;
17606;SDS011;8922;52.240;20.980;2022-11-10T11:42:46;17.20;;;11.63;;
17606;SDS011;8922;52.240;20.980;2022-11-10T11:45:22;16.87;;;11.87;;
17606;SDS011;8922;52.240;20.980;2022-11-10T11:47:58;17.77;;;11.63;;
17606;SDS011;8922;52.240;20.980;2022-11-10T11:50:38;23.10;;;12.37;;
17606;SDS011;8922;52.240;20.980;2022-11-10T11:53:11;15.10;;;10.83;;
17606;SDS011;8922;52.240;20.980;2022-11-10T11:55:53;15.30;;;11.10;;
17606;SDS011;8922;52.240;20.980;2022-11-10T11:58:32;16.33;;;11.00;;
17606;SDS011;8922;52.240;20.980;2022-11-10T12:01:12;15.57;;;10.37;;
17606;SDS011;8922;52.240;20.980;2022-11-10T12:06:43;17.73;;;11.07;;
17606;SDS011;8922;52.240;20.980;2022-11-10T12:09:19;12.37;;;9.93;;
17606;SDS011;8922;52.240;20.980;2022-11-10T12:11:58;15.90;;;11.07;;
17606;SDS011;8922;52.240;20.980;2022-11-10T12:14:43;12.63;;;10.37;;
17606;SDS011;8922;52.240;20.980;2022-11-10T12:17:18;15.13;;;10.97;;
17606;SDS011;8922;52.240;20.980;2022-11-10T12:19:56;13.27;;;9.87;;
17606;SDS011;8922;52.240;20.980;2022-11-10T12:22:34;14.83;;;11.37;;
17606;SDS011;8922;52.240;20.980;2022-11-10T12:25:14;15.53;;;11.93;;
17606;SDS011;8922;52.240;20.980;2022-11-10T12:27:51;15.20;;;9.93;;
17606;SDS011;8922;52.240;20.980;2022-11-10T12:30:20;14.53;;;10.43;;
17606;SDS011;8922;52.240;20.980;2022-11-10T12:32:48;14.27;;;10.60;;
17606;SDS011;8922;52.240;20.980;2022-11-10T12:35:20;14.43;;;10.20;;
17606;SDS011;8922;52.240;20.980;2022-11-10T12:37:51;15.03;;;9.83;;
17606;SDS011;8922;52.240;20.980;2022-11-10T12:40:21;12.53;;;9.90;;
17606;SDS011;8922;52.240;20.980;2022-11-10T12:42:51;16.87;;;10.17;;
17606;SDS011;8922;52.240;20.980;2022-11-10T12:45:23;14.37;;;10.00;;
17606;SDS011;8922;52.240;20.980;2022-11-10T12:47:52;12.67;;;9.60;;
17606;SDS011;8922;52.240;20.980;2022-11-10T12:50:28;17.23;;;10.00;;
17606;SDS011;8922;52.240;20.980;2022-11-10T12:53:06;11.63;;;9.03;;
17606;SDS011;8922;52.240;20.980;2022-11-10T12:55:40;14.77;;;9.87;;
17606;SDS011;8922;52.240;20.980;2022-11-10T12:58:10;15.77;;;9.40;;
17606;SDS011;8922;52.240;20.980;2022-11-10T13:00:39;12.43;;;8.97;;
17606;SDS011;8922;52.240;20.980;2022-11-10T13:03:12;15.00;;;8.87;;
17606;SDS011;8922;52.240;20.980;2022-11-10T13:05:40;13.40;;;8.87;;
17606;SDS011;8922;52.240;20.980;2022-11-10T13:08:15;12.07;;;8.63;;
17606;SDS011;8922;52.240;20.980;2022-11-10T13:10:55;14.40;;;8.80;;
17606;SDS011;8922;52.240;20.980;2022-11-10T13:13:25;16.37;;;8.93;;
17606;SDS011;8922;52.240;20.980;2022-11-10T13:15:54;14.83;;;8.90;;
17606;SDS011;8922;52.240;20.980;2022-11-10T13:21:17;14.93;;;9.80;;
17606;SDS011;8922;52.240;20.980;2022-11-10T13:24:30;13.33;;;9.33;;
17606;SDS011;8922;52.240;20.980;2022-11-10T13:26:58;15.80;;;8.70;;
17606;SDS011;8922;52.240;20.980;2022-11-10T13:29:30;14.60;;;9.23;;
17606;SDS011;8922;52.240;20.980;2022-11-10T13:34:53;15.70;;;9.13;;
17606;SDS011;8922;52.240;20.980;2022-11-10T13:37:41;13.03;;;8.93;;
17606;SDS011;8922;52.240;20.980;2022-11-10T13:40:34;12.93;;;8.80;;
17606;SDS011;8922;52.240;20.980;2022-11-10T13:43:23;11.27;;;8.67;;
17606;SDS011;8922;52.240;20.980;2022-11-10T13:46:01;12.67;;;9.17;;
17606;SDS011;8922;52.240;20.980;2022-11-10T13:48:36;14.93;;;9.17;;
17606;SDS011;8922;52.240;20.980;2022-11-10T13:51:18;12.83;;;9.73;;
17606;SDS011;8922;52.240;20.980;2022-11-10T13:53:54;11.00;;;8.77;;
17606;SDS011;8922;52.240;20.980;2022-11-10T13:56:45;11.63;;;8.63;;
17606;SDS011;8922;52.240;20.980;2022-11-10T13:59:23;15.40;;;8.77;;
17606;SDS011;8922;52.240;20.980;2022-11-10T14:01:51;13.00;;;9.30;;
17606;SDS011;8922;52.240;20.980;2022-11-10T14:04:38;11.77;;;9.40;;
17606;SDS011;8922;52.240;20.980;2022-11-10T14:07:11;11.83;;;8.97;;
17606;SDS011;8922;52.240;20.980;2022-11-10T14:09:40;14.63;;;9.57;;
17606;SDS011;8922;52.240;20.980;2022-11-10T14:12:15;11.63;;;8.03;;
17606;SDS011;8922;52.240;20.980;2022-11-10T14:14:50;11.00;;;8.57;;
17606;SDS011;8922;52.240;20.980;2022-11-10T14:17:20;13.73;;;9.37;;
17606;SDS011;8922;52.240;20.980;2022-11-10T14:19:50;11.90;;;8.60;;
17606;SDS011;8922;52.240;20.980;2022-11-10T14:22:19;14.60;;;9.20;;
17606;SDS011;8922;52.240;20.980;2022-11-10T14:24:55;12.47;;;9.03;;
17606;SDS011;8922;52.240;20.980;2022-11-10T14:27:28;12.80;;;9.03;;
17606;SDS011;8922;52.240;20.980;2022-11-10T14:32:53;14.70;;;9.30;;
17606;SDS011;8922;52.240;20.980;2022-11-10T14:35:21;12.43;;;9.43;;
17606;SDS011;8922;52.240;20.980;2022-11-10T14:37:50;13.87;;;9.27;;
17606;SDS011;8922;52.240;20.980;2022-11-10T14:40:22;15.10;;;8.87;;
17606;SDS011;8922;52.240;20.980;2022-11-10T14:42:50;15.27;;;9.50;;
17606;SDS011;8922;52.240;20.980;2022-11-10T14:45:18;15.10;;;10.37;;
17606;SDS011;8922;52.240;20.980;2022-11-10T14:47:50;13.80;;;10.23;;
17606;SDS011;8922;52.240;20.980;2022-11-10T14:50:20;13.07;;;9.93;;
17606;SDS011;8922;52.240;20.980;2022-11-10T14:52:50;13.93;;;9.40;;
17606;SDS011;8922;52.240;20.980;2022-11-10T14:55:20;18.10;;;10.23;;
17606;SDS011;8922;52.240;20.980;2022-11-10T14:57:50;16.03;;;10.23;;